sensor_id;sensor_type;location;lat;lon;timestamp;P1;durP1;ratioP1;P2;durP2;ratioP2
52508;SDS011;38420;53.150;6.370;2022-10-04T00:02:24;24.02;;;13.27;;
52508;SDS011;38420;53.150;6.370;2022-10-04T00:05:06;23.45;;;12.93;;
52508;SDS011;38420;53.150;6.370;2022-10-04T00:13:00;22.65;;;12.15;;
52508;SDS011;38420;53.150;6.370;2022-10-04T00:15:31;22.52;;;11.77;;
52508;SDS011;38420;53.150;6.370;2022-10-04T00:23:24;22.65;;;12.85;;
52508;SDS011;38420;53.150;6.370;2022-10-04T00:36:31;19.13;;;11.75;;
52508;SDS011;38420;53.150;6.370;2022-10-04T00:39:13;26.77;;;12.73;;
52508;SDS011;38420;53.150;6.370;2022-10-04T00:44:24;17.75;;;12.05;;
52508;SDS011;38420;53.150;6.370;2022-10-04T00:46:57;21.92;;;11.65;;
52508;SDS011;38420;53.150;6.370;2022-10-04T00:49:28;20.52;;;12.40;;
52508;SDS011;38420;53.150;6.370;2022-10-04T00:52:02;21.10;;;12.25;;
52508;SDS011;38420;53.150;6.370;2022-10-04T00:54:45;21.15;;;11.82;;
52508;SDS011;38420;53.150;6.370;2022-10-04T00:57:26;23.48;;;12.88;;
52508;SDS011;38420;53.150;6.370;2022-10-04T01:00:13;18.25;;;10.80;;
52508;SDS011;38420;53.150;6.370;2022-10-04T01:05:09;20.60;;;12.70;;
52508;SDS011;38420;53.150;6.370;2022-10-04T01:07:43;22.35;;;11.70;;
52508;SDS011;38420;53.150;6.370;2022-10-04T01:12:56;24.45;;;11.30;;
52508;SDS011;38420;53.150;6.370;2022-10-04T01:15:40;21.55;;;11.95;;
52508;SDS011;38420;53.150;6.370;2022-10-04T01:20:48;18.10;;;11.75;;
52508;SDS011;38420;53.150;6.370;2022-10-04T01:23:41;18.52;;;12.00;;
52508;SDS011;38420;53.150;6.370;2022-10-04T01:28:59;24.45;;;12.27;;
52508;SDS011;38420;53.150;6.370;2022-10-04T01:31:31;24.77;;;12.57;;
52508;SDS011;38420;53.150;6.370;2022-10-04T01:33:58;26.00;;;12.75;;
52508;SDS011;38420;53.150;6.370;2022-10-04T01:36:25;22.20;;;11.98;;
52508;SDS011;38420;53.150;6.370;2022-10-04T01:38:51;23.65;;;12.73;;
52508;SDS011;38420;53.150;6.370;2022-10-04T01:41:19;23.75;;;13.07;;
52508;SDS011;38420;53.150;6.370;2022-10-04T01:43:52;17.85;;;12.00;;
52508;SDS011;38420;53.150;6.370;2022-10-04T01:46:23;26.40;;;13.95;;
52508;SDS011;38420;53.150;6.370;2022-10-04T01:48:50;26.33;;;13.45;;
52508;SDS011;38420;53.150;6.370;2022-10-04T01:51:20;21.77;;;12.95;;
52508;SDS011;38420;53.150;6.370;2022-10-04T01:53:52;23.30;;;12.25;;
52508;SDS011;38420;53.150;6.370;2022-10-04T01:56:30;22.02;;;12.25;;
52508;SDS011;38420;53.150;6.370;2022-10-04T01:59:03;23.05;;;13.18;;
52508;SDS011;38420;53.150;6.370;2022-10-04T02:04:17;23.70;;;12.80;;
52508;SDS011;38420;53.150;6.370;2022-10-04T02:06:51;22.33;;;13.13;;
52508;SDS011;38420;53.150;6.370;2022-10-04T02:09:23;21.77;;;11.48;;
52508;SDS011;38420;53.150;6.370;2022-10-04T02:11:51;30.20;;;14.00;;
52508;SDS011;38420;53.150;6.370;2022-10-04T02:14:19;21.80;;;12.60;;
52508;SDS011;38420;53.150;6.370;2022-10-04T02:16:49;25.92;;;12.75;;
52508;SDS011;38420;53.150;6.370;2022-10-04T02:19:18;26.48;;;13.15;;
52508;SDS011;38420;53.150;6.370;2022-10-04T02:21:48;28.70;;;13.30;;
52508;SDS011;38420;53.150;6.370;2022-10-04T02:24:16;20.70;;;13.13;;
52508;SDS011;38420;53.150;6.370;2022-10-04T02:26:47;25.73;;;13.38;;
52508;SDS011;38420;53.150;6.370;2022-10-04T02:29:17;20.70;;;12.80;;
52508;SDS011;38420;53.150;6.370;2022-10-04T02:31:44;25.77;;;13.20;;
52508;SDS011;38420;53.150;6.370;2022-10-04T02:34:30;25.70;;;12.63;;
52508;SDS011;38420;53.150;6.370;2022-10-04T02:36:56;25.33;;;12.63;;
52508;SDS011;38420;53.150;6.370;2022-10-04T02:39:29;22.13;;;12.77;;
52508;SDS011;38420;53.150;6.370;2022-10-04T02:42:08;23.27;;;12.77;;
52508;SDS011;38420;53.150;6.370;2022-10-04T02:44:43;22.17;;;13.98;;
52508;SDS011;38420;53.150;6.370;2022-10-04T02:47:20;28.02;;;14.38;;
52508;SDS011;38420;53.150;6.370;2022-10-04T02:52:28;27.15;;;13.52;;
52508;SDS011;38420;53.150;6.370;2022-10-04T02:55:22;28.40;;;13.85;;
52508;SDS011;38420;53.150;6.370;2022-10-04T02:57:53;23.42;;;13.52;;
52508;SDS011;38420;53.150;6.370;2022-10-04T03:00:30;27.52;;;14.25;;
52508;SDS011;38420;53.150;6.370;2022-10-04T03:03:15;26.88;;;14.15;;
52508;SDS011;38420;53.150;6.370;2022-10-04T03:05:42;25.05;;;13.50;;
52508;SDS011;38420;53.150;6.370;2022-10-04T03:08:11;25.08;;;14.52;;
52508;SDS011;38420;53.150;6.370;2022-10-04T03:10:37;22.38;;;13.85;;
52508;SDS011;38420;53.150;6.370;2022-10-04T03:13:06;23.05;;;14.73;;
52508;SDS011;38420;53.150;6.370;2022-10-04T03:15:33;21.63;;;13.57;;
52508;SDS011;38420;53.150;6.370;2022-10-04T03:17:59;25.25;;;14.05;;
52508;SDS011;38420;53.150;6.370;2022-10-04T03:20:24;26.27;;;13.77;;
52508;SDS011;38420;53.150;6.370;2022-10-04T03:22:52;23.85;;;14.07;;
52508;SDS011;38420;53.150;6.370;2022-10-04T03:25:29;24.83;;;12.10;;
52508;SDS011;38420;53.150;6.370;2022-10-04T03:28:07;24.95;;;13.25;;
52508;SDS011;38420;53.150;6.370;2022-10-04T03:30:33;25.77;;;12.63;;
52508;SDS011;38420;53.150;6.370;2022-10-04T03:33:00;21.63;;;12.88;;
52508;SDS011;38420;53.150;6.370;2022-10-04T03:35:32;26.00;;;13.10;;
52508;SDS011;38420;53.150;6.370;2022-10-04T03:38:00;24.92;;;12.35;;
52508;SDS011;38420;53.150;6.370;2022-10-04T03:40:33;25.88;;;12.90;;
52508;SDS011;38420;53.150;6.370;2022-10-04T03:43:02;26.63;;;13.40;;
52508;SDS011;38420;53.150;6.370;2022-10-04T03:45:29;27.65;;;13.50;;
52508;SDS011;38420;53.150;6.370;2022-10-04T03:47:58;23.88;;;12.95;;
52508;SDS011;38420;53.150;6.370;2022-10-04T03:50:33;22.67;;;13.73;;
52508;SDS011;38420;53.150;6.370;2022-10-04T03:53:06;25.23;;;13.27;;
52508;SDS011;38420;53.150;6.370;2022-10-04T03:55:42;23.60;;;12.90;;
52508;SDS011;38420;53.150;6.370;2022-10-04T03:58:10;24.73;;;13.93;;
52508;SDS011;38420;53.150;6.370;2022-10-04T04:00:39;28.85;;;14.35;;
52508;SDS011;38420;53.150;6.370;2022-10-04T04:03:21;24.80;;;13.88;;
52508;SDS011;38420;53.150;6.370;2022-10-04T04:05:53;25.98;;;13.77;;
52508;SDS011;38420;53.150;6.370;2022-10-04T04:08:33;24.02;;;13.98;;
52508;SDS011;38420;53.150;6.370;2022-10-04T04:11:02;24.00;;;13.60;;
52508;SDS011;38420;53.150;6.370;2022-10-04T04:16:10;27.58;;;14.85;;
52508;SDS011;38420;53.150;6.370;2022-10-04T04:18:36;24.52;;;13.80;;
52508;SDS011;38420;53.150;6.370;2022-10-04T04:21:06;30.10;;;14.48;;
52508;SDS011;38420;53.150;6.370;2022-10-04T04:23:39;20.67;;;13.38;;
52508;SDS011;38420;53.150;6.370;2022-10-04T04:29:06;25.08;;;14.18;;
52508;SDS011;38420;53.150;6.370;2022-10-04T04:31:45;23.88;;;15.32;;
52508;SDS011;38420;53.150;6.370;2022-10-04T04:34:20;28.13;;;14.40;;
52508;SDS011;38420;53.150;6.370;2022-10-04T04:36:48;25.13;;;15.75;;
52508;SDS011;38420;53.150;6.370;2022-10-04T04:39:16;27.02;;;15.18;;
52508;SDS011;38420;53.150;6.370;2022-10-04T04:42:15;22.85;;;14.23;;
52508;SDS011;38420;53.150;6.370;2022-10-04T04:47:20;34.45;;;16.05;;
52508;SDS011;38420;53.150;6.370;2022-10-04T04:50:00;29.52;;;16.27;;
52508;SDS011;38420;53.150;6.370;2022-10-04T04:52:30;30.40;;;16.90;;
52508;SDS011;38420;53.150;6.370;2022-10-04T04:54:57;22.77;;;15.70;;
52508;SDS011;38420;53.150;6.370;2022-10-04T04:57:23;33.20;;;17.58;;
52508;SDS011;38420;53.150;6.370;2022-10-04T04:59:51;28.65;;;15.45;;
52508;SDS011;38420;53.150;6.370;2022-10-04T05:02:36;26.75;;;16.08;;
52508;SDS011;38420;53.150;6.370;2022-10-04T05:07:42;31.80;;;17.10;;
52508;SDS011;38420;53.150;6.370;2022-10-04T05:13:13;28.77;;;17.90;;
52508;SDS011;38420;53.150;6.370;2022-10-04T05:15:41;33.22;;;16.75;;
52508;SDS011;38420;53.150;6.370;2022-10-04T05:18:12;33.10;;;17.70;;
52508;SDS011;38420;53.150;6.370;2022-10-04T05:20:45;27.10;;;16.15;;
52508;SDS011;38420;53.150;6.370;2022-10-04T05:23:16;29.05;;;17.98;;
52508;SDS011;38420;53.150;6.370;2022-10-04T05:25:41;30.95;;;18.48;;
52508;SDS011;38420;53.150;6.370;2022-10-04T05:28:10;32.58;;;18.15;;
52508;SDS011;38420;53.150;6.370;2022-10-04T05:33:21;30.45;;;18.67;;
52508;SDS011;38420;53.150;6.370;2022-10-04T05:36:16;30.52;;;17.65;;
52508;SDS011;38420;53.150;6.370;2022-10-04T05:41:39;25.48;;;17.85;;
52508;SDS011;38420;53.150;6.370;2022-10-04T05:44:21;31.58;;;17.95;;
52508;SDS011;38420;53.150;6.370;2022-10-04T05:46:58;32.03;;;17.58;;
52508;SDS011;38420;53.150;6.370;2022-10-04T05:49:27;30.55;;;18.60;;
52508;SDS011;38420;53.150;6.370;2022-10-04T05:52:01;34.83;;;19.00;;
52508;SDS011;38420;53.150;6.370;2022-10-04T05:54:31;35.58;;;19.67;;
52508;SDS011;38420;53.150;6.370;2022-10-04T06:04:51;30.40;;;18.52;;
52508;SDS011;38420;53.150;6.370;2022-10-04T06:10:07;30.80;;;20.05;;
52508;SDS011;38420;53.150;6.370;2022-10-04T06:23:15;33.97;;;21.17;;
52508;SDS011;38420;53.150;6.370;2022-10-04T06:28:18;34.45;;;21.50;;
52508;SDS011;38420;53.150;6.370;2022-10-04T06:42:07;34.80;;;20.08;;
52508;SDS011;38420;53.150;6.370;2022-10-04T06:51:19;34.85;;;20.02;;
52508;SDS011;38420;53.150;6.370;2022-10-04T07:02:50;32.85;;;21.13;;
52508;SDS011;38420;53.150;6.370;2022-10-04T07:05:34;32.40;;;18.50;;
52508;SDS011;38420;53.150;6.370;2022-10-04T07:18:59;33.70;;;20.88;;
52508;SDS011;38420;53.150;6.370;2022-10-04T07:21:34;34.47;;;22.42;;
52508;SDS011;38420;53.150;6.370;2022-10-04T07:24:08;39.42;;;20.83;;
52508;SDS011;38420;53.150;6.370;2022-10-04T07:29:12;32.42;;;20.52;;
52508;SDS011;38420;53.150;6.370;2022-10-04T07:31:45;33.72;;;19.30;;
52508;SDS011;38420;53.150;6.370;2022-10-04T07:34:22;33.95;;;19.85;;
52508;SDS011;38420;53.150;6.370;2022-10-04T07:36:52;29.70;;;19.05;;
52508;SDS011;38420;53.150;6.370;2022-10-04T07:39:24;32.88;;;19.73;;
52508;SDS011;38420;53.150;6.370;2022-10-04T07:44:57;32.13;;;19.50;;
52508;SDS011;38420;53.150;6.370;2022-10-04T07:47:46;24.90;;;17.27;;
52508;SDS011;38420;53.150;6.370;2022-10-04T07:50:25;26.77;;;18.70;;
52508;SDS011;38420;53.150;6.370;2022-10-04T07:53:04;26.05;;;17.17;;
52508;SDS011;38420;53.150;6.370;2022-10-04T08:01:01;25.17;;;16.73;;
52508;SDS011;38420;53.150;6.370;2022-10-04T08:03:33;31.33;;;17.48;;
52508;SDS011;38420;53.150;6.370;2022-10-04T08:06:14;30.75;;;18.02;;
52508;SDS011;38420;53.150;6.370;2022-10-04T08:11:49;20.40;;;15.85;;
52508;SDS011;38420;53.150;6.370;2022-10-04T08:14:39;28.35;;;17.75;;
52508;SDS011;38420;53.150;6.370;2022-10-04T08:17:26;27.35;;;16.58;;
52508;SDS011;38420;53.150;6.370;2022-10-04T08:20:28;30.27;;;16.90;;
52508;SDS011;38420;53.150;6.370;2022-10-04T08:23:19;26.33;;;16.15;;
52508;SDS011;38420;53.150;6.370;2022-10-04T08:26:11;25.15;;;16.50;;
52508;SDS011;38420;53.150;6.370;2022-10-04T08:29:03;27.55;;;15.68;;
52508;SDS011;38420;53.150;6.370;2022-10-04T08:32:11;16.60;;;13.40;;
52508;SDS011;38420;53.150;6.370;2022-10-04T08:54:37;15.25;;;9.90;;
52508;SDS011;38420;53.150;6.370;2022-10-04T09:05:13;10.98;;;7.95;;
52508;SDS011;38420;53.150;6.370;2022-10-04T09:24:31;11.00;;;8.00;;
52508;SDS011;38420;53.150;6.370;2022-10-04T09:27:57;14.57;;;7.85;;
52508;SDS011;38420;53.150;6.370;2022-10-04T09:30:18;11.95;;;7.25;;
52508;SDS011;38420;53.150;6.370;2022-10-04T09:38:13;10.85;;;7.50;;
52508;SDS011;38420;53.150;6.370;2022-10-04T09:44:13;14.13;;;8.27;;
52508;SDS011;38420;53.150;6.370;2022-10-04T09:52:04;15.20;;;8.57;;
52508;SDS011;38420;53.150;6.370;2022-10-04T09:57:40;13.25;;;8.50;;
52508;SDS011;38420;53.150;6.370;2022-10-04T10:00:21;17.42;;;9.82;;
52508;SDS011;38420;53.150;6.370;2022-10-04T10:08:39;15.10;;;8.90;;
52508;SDS011;38420;53.150;6.370;2022-10-04T10:20:19;19.38;;;9.18;;
52508;SDS011;38420;53.150;6.370;2022-10-04T10:31:21;15.60;;;7.22;;
52508;SDS011;38420;53.150;6.370;2022-10-04T10:34:07;11.75;;;6.53;;
52508;SDS011;38420;53.150;6.370;2022-10-04T10:42:47;11.52;;;6.88;;
52508;SDS011;38420;53.150;6.370;2022-10-04T10:45:19;12.88;;;6.80;;
52508;SDS011;38420;53.150;6.370;2022-10-04T10:48:10;13.70;;;7.35;;
52508;SDS011;38420;53.150;6.370;2022-10-04T10:50:52;14.32;;;6.95;;
52508;SDS011;38420;53.150;6.370;2022-10-04T11:12:55;14.88;;;7.50;;
52508;SDS011;38420;53.150;6.370;2022-10-04T11:16:03;9.13;;;6.38;;
52508;SDS011;38420;53.150;6.370;2022-10-04T11:24:29;11.25;;;7.50;;
52508;SDS011;38420;53.150;6.370;2022-10-04T11:35:37;10.45;;;6.97;;
52508;SDS011;38420;53.150;6.370;2022-10-04T11:38:27;11.30;;;6.85;;
52508;SDS011;38420;53.150;6.370;2022-10-04T11:49:32;13.95;;;8.35;;
52508;SDS011;38420;53.150;6.370;2022-10-04T11:57:55;14.05;;;7.57;;
52508;SDS011;38420;53.150;6.370;2022-10-04T12:00:40;12.82;;;7.28;;
52508;SDS011;38420;53.150;6.370;2022-10-04T12:29:00;11.80;;;7.70;;
52508;SDS011;38420;53.150;6.370;2022-10-04T12:31:36;10.50;;;6.82;;
52508;SDS011;38420;53.150;6.370;2022-10-04T12:36:42;9.68;;;6.85;;
52508;SDS011;38420;53.150;6.370;2022-10-04T12:42:22;13.70;;;6.85;;
52508;SDS011;38420;53.150;6.370;2022-10-04T12:47:55;10.60;;;7.57;;
52508;SDS011;38420;53.150;6.370;2022-10-04T12:51:02;11.77;;;6.50;;
52508;SDS011;38420;53.150;6.370;2022-10-04T12:56:39;9.95;;;5.90;;
52508;SDS011;38420;53.150;6.370;2022-10-04T13:02:22;10.18;;;5.75;;
52508;SDS011;38420;53.150;6.370;2022-10-04T13:15:42;9.57;;;5.85;;
52508;SDS011;38420;53.150;6.370;2022-10-04T13:24:11;9.77;;;5.20;;
52508;SDS011;38420;53.150;6.370;2022-10-04T13:27:01;7.70;;;5.43;;
52508;SDS011;38420;53.150;6.370;2022-10-04T13:32:09;9.63;;;5.35;;
52508;SDS011;38420;53.150;6.370;2022-10-04T13:35:00;9.73;;;5.80;;
52508;SDS011;38420;53.150;6.370;2022-10-04T13:40:36;9.40;;;5.68;;
52508;SDS011;38420;53.150;6.370;2022-10-04T13:46:11;12.50;;;6.50;;
52508;SDS011;38420;53.150;6.370;2022-10-04T14:05:03;10.40;;;5.35;;
52508;SDS011;38420;53.150;6.370;2022-10-04T14:11:07;10.27;;;5.85;;
52508;SDS011;38420;53.150;6.370;2022-10-04T14:17:05;8.30;;;5.57;;
52508;SDS011;38420;53.150;6.370;2022-10-04T14:22:54;11.18;;;4.60;;
52508;SDS011;38420;53.150;6.370;2022-10-04T14:28:25;6.80;;;4.00;;
52508;SDS011;38420;53.150;6.370;2022-10-04T14:34:28;10.13;;;4.85;;
52508;SDS011;38420;53.150;6.370;2022-10-04T14:42:55;6.38;;;4.03;;
52508;SDS011;38420;53.150;6.370;2022-10-04T14:48:57;4.82;;;3.42;;
52508;SDS011;38420;53.150;6.370;2022-10-04T14:51:35;6.53;;;3.72;;
52508;SDS011;38420;53.150;6.370;2022-10-04T15:07:36;8.68;;;4.15;;
52508;SDS011;38420;53.150;6.370;2022-10-04T15:13:08;6.68;;;4.38;;
52508;SDS011;38420;53.150;6.370;2022-10-04T15:16:10;9.23;;;4.38;;
52508;SDS011;38420;53.150;6.370;2022-10-04T15:18:47;8.80;;;4.95;;
52508;SDS011;38420;53.150;6.370;2022-10-04T15:30:00;8.65;;;4.90;;
52508;SDS011;38420;53.150;6.370;2022-10-04T15:35:33;8.70;;;4.53;;
52508;SDS011;38420;53.150;6.370;2022-10-04T15:41:00;9.98;;;4.00;;
52508;SDS011;38420;53.150;6.370;2022-10-04T15:44:12;8.13;;;4.25;;
52508;SDS011;38420;53.150;6.370;2022-10-04T15:46:40;6.00;;;3.78;;
52508;SDS011;38420;53.150;6.370;2022-10-04T15:52:03;7.30;;;4.30;;
52508;SDS011;38420;53.150;6.370;2022-10-04T15:54:42;6.03;;;3.70;;
52508;SDS011;38420;53.150;6.370;2022-10-04T16:02:27;7.95;;;4.55;;
52508;SDS011;38420;53.150;6.370;2022-10-04T16:14:05;8.73;;;4.53;;
52508;SDS011;38420;53.150;6.370;2022-10-04T16:17:01;7.32;;;4.55;;
52508;SDS011;38420;53.150;6.370;2022-10-04T16:22:41;8.32;;;4.30;;
52508;SDS011;38420;53.150;6.370;2022-10-04T16:25:48;9.88;;;4.32;;
52508;SDS011;38420;53.150;6.370;2022-10-04T16:31:16;9.40;;;4.35;;
52508;SDS011;38420;53.150;6.370;2022-10-04T16:34:02;8.03;;;4.80;;
52508;SDS011;38420;53.150;6.370;2022-10-04T16:56:20;10.02;;;5.03;;
52508;SDS011;38420;53.150;6.370;2022-10-04T17:01:20;9.20;;;5.55;;
52508;SDS011;38420;53.150;6.370;2022-10-04T17:07:42;11.13;;;5.30;;
52508;SDS011;38420;53.150;6.370;2022-10-04T17:10:04;10.55;;;5.45;;
52508;SDS011;38420;53.150;6.370;2022-10-04T17:12:55;9.65;;;5.05;;
52508;SDS011;38420;53.150;6.370;2022-10-04T17:15:23;10.10;;;5.57;;
52508;SDS011;38420;53.150;6.370;2022-10-04T17:26:04;9.15;;;4.90;;
52508;SDS011;38420;53.150;6.370;2022-10-04T17:32:02;12.13;;;5.35;;
52508;SDS011;38420;53.150;6.370;2022-10-04T17:34:51;10.18;;;5.45;;
52508;SDS011;38420;53.150;6.370;2022-10-04T17:37:42;8.30;;;5.57;;
52508;SDS011;38420;53.150;6.370;2022-10-04T17:40:28;8.18;;;5.22;;
52508;SDS011;38420;53.150;6.370;2022-10-04T17:49:01;9.15;;;5.05;;
52508;SDS011;38420;53.150;6.370;2022-10-04T17:51:54;9.88;;;5.50;;
52508;SDS011;38420;53.150;6.370;2022-10-04T17:54:45;9.63;;;5.50;;
52508;SDS011;38420;53.150;6.370;2022-10-04T17:57:40;9.35;;;5.25;;
52508;SDS011;38420;53.150;6.370;2022-10-04T18:00:18;12.90;;;5.95;;
52508;SDS011;38420;53.150;6.370;2022-10-04T18:03:03;11.15;;;6.13;;
52508;SDS011;38420;53.150;6.370;2022-10-04T18:11:29;12.45;;;6.10;;
52508;SDS011;38420;53.150;6.370;2022-10-04T18:14:18;13.40;;;5.85;;
52508;SDS011;38420;53.150;6.370;2022-10-04T18:17:01;10.45;;;6.18;;
52508;SDS011;38420;53.150;6.370;2022-10-04T18:22:16;8.43;;;5.65;;
52508;SDS011;38420;53.150;6.370;2022-10-04T18:24:45;12.35;;;5.75;;
52508;SDS011;38420;53.150;6.370;2022-10-04T18:27:16;12.88;;;6.60;;
52508;SDS011;38420;53.150;6.370;2022-10-04T18:35:01;12.35;;;5.97;;
52508;SDS011;38420;53.150;6.370;2022-10-04T18:37:42;8.48;;;5.70;;
52508;SDS011;38420;53.150;6.370;2022-10-04T18:40:19;12.38;;;6.05;;
52508;SDS011;38420;53.150;6.370;2022-10-04T18:42:56;14.52;;;6.25;;
52508;SDS011;38420;53.150;6.370;2022-10-04T18:45:28;9.02;;;6.43;;
52508;SDS011;38420;53.150;6.370;2022-10-04T18:47:54;10.70;;;6.65;;
52508;SDS011;38420;53.150;6.370;2022-10-04T19:06:51;14.00;;;6.75;;
52508;SDS011;38420;53.150;6.370;2022-10-04T19:12:01;12.30;;;7.30;;
52508;SDS011;38420;53.150;6.370;2022-10-04T19:14:31;12.90;;;7.97;;
52508;SDS011;38420;53.150;6.370;2022-10-04T19:17:13;12.38;;;7.22;;
52508;SDS011;38420;53.150;6.370;2022-10-04T19:19:52;11.90;;;7.60;;
52508;SDS011;38420;53.150;6.370;2022-10-04T19:22:42;11.93;;;7.55;;
52508;SDS011;38420;53.150;6.370;2022-10-04T19:25:22;15.18;;;7.63;;
52508;SDS011;38420;53.150;6.370;2022-10-04T19:27:51;10.35;;;7.50;;
52508;SDS011;38420;53.150;6.370;2022-10-04T19:30:23;14.23;;;8.23;;
52508;SDS011;38420;53.150;6.370;2022-10-04T19:36:29;15.57;;;7.85;;
52508;SDS011;38420;53.150;6.370;2022-10-04T19:38:53;17.05;;;9.02;;
52508;SDS011;38420;53.150;6.370;2022-10-04T19:47:00;15.48;;;8.45;;
52508;SDS011;38420;53.150;6.370;2022-10-04T19:49:49;17.40;;;9.27;;
52508;SDS011;38420;53.150;6.370;2022-10-04T19:52:32;17.42;;;9.23;;
52508;SDS011;38420;53.150;6.370;2022-10-04T19:55:14;14.80;;;8.40;;
52508;SDS011;38420;53.150;6.370;2022-10-04T19:58:00;14.75;;;8.93;;
52508;SDS011;38420;53.150;6.370;2022-10-04T20:00:48;15.65;;;8.90;;
52508;SDS011;38420;53.150;6.370;2022-10-04T20:03:14;12.40;;;8.18;;
52508;SDS011;38420;53.150;6.370;2022-10-04T20:05:44;12.82;;;8.27;;
52508;SDS011;38420;53.150;6.370;2022-10-04T20:08:12;16.80;;;9.43;;
52508;SDS011;38420;53.150;6.370;2022-10-04T20:10:39;19.40;;;8.70;;
52508;SDS011;38420;53.150;6.370;2022-10-04T20:18:49;14.93;;;8.95;;
52508;SDS011;38420;53.150;6.370;2022-10-04T20:26:01;13.02;;;8.52;;
52508;SDS011;38420;53.150;6.370;2022-10-04T20:29:42;14.48;;;7.93;;
52508;SDS011;38420;53.150;6.370;2022-10-04T20:34:58;12.20;;;8.45;;
52508;SDS011;38420;53.150;6.370;2022-10-04T20:40:09;16.65;;;9.15;;
52508;SDS011;38420;53.150;6.370;2022-10-04T20:45:44;13.50;;;9.25;;
52508;SDS011;38420;53.150;6.370;2022-10-04T20:48:11;13.90;;;8.20;;
52508;SDS011;38420;53.150;6.370;2022-10-04T20:50:43;15.75;;;9.88;;
52508;SDS011;38420;53.150;6.370;2022-10-04T20:55:49;14.48;;;9.05;;
52508;SDS011;38420;53.150;6.370;2022-10-04T21:00:57;16.73;;;9.30;;
52508;SDS011;38420;53.150;6.370;2022-10-04T21:03:26;13.15;;;9.10;;
52508;SDS011;38420;53.150;6.370;2022-10-04T21:06:25;18.42;;;9.18;;
52508;SDS011;38420;53.150;6.370;2022-10-04T21:08:44;16.00;;;9.55;;
52508;SDS011;38420;53.150;6.370;2022-10-04T21:11:12;15.93;;;9.65;;
52508;SDS011;38420;53.150;6.370;2022-10-04T21:13:57;16.00;;;9.55;;
52508;SDS011;38420;53.150;6.370;2022-10-04T21:16:35;13.45;;;9.23;;
52508;SDS011;38420;53.150;6.370;2022-10-04T21:21:54;15.07;;;8.95;;
52508;SDS011;38420;53.150;6.370;2022-10-04T21:24:36;13.35;;;8.90;;
52508;SDS011;38420;53.150;6.370;2022-10-04T21:27:07;19.30;;;10.18;;
52508;SDS011;38420;53.150;6.370;2022-10-04T21:29:35;12.95;;;8.82;;
52508;SDS011;38420;53.150;6.370;2022-10-04T21:32:01;18.27;;;10.23;;
52508;SDS011;38420;53.150;6.370;2022-10-04T21:34:27;14.18;;;9.38;;
52508;SDS011;38420;53.150;6.370;2022-10-04T21:36:52;15.38;;;9.50;;
52508;SDS011;38420;53.150;6.370;2022-10-04T21:39:18;14.77;;;9.10;;
52508;SDS011;38420;53.150;6.370;2022-10-04T21:41:44;14.45;;;9.15;;
52508;SDS011;38420;53.150;6.370;2022-10-04T21:44:09;13.75;;;9.18;;
52508;SDS011;38420;53.150;6.370;2022-10-04T21:46:35;11.75;;;8.50;;
52508;SDS011;38420;53.150;6.370;2022-10-04T21:49:01;14.32;;;8.90;;
52508;SDS011;38420;53.150;6.370;2022-10-04T21:51:27;13.98;;;8.88;;
52508;SDS011;38420;53.150;6.370;2022-10-04T21:53:56;13.18;;;8.63;;
52508;SDS011;38420;53.150;6.370;2022-10-04T21:56:22;16.80;;;8.95;;
52508;SDS011;38420;53.150;6.370;2022-10-04T21:58:48;14.30;;;9.10;;
52508;SDS011;38420;53.150;6.370;2022-10-04T22:01:14;14.23;;;9.43;;
52508;SDS011;38420;53.150;6.370;2022-10-04T22:03:39;13.60;;;8.65;;
52508;SDS011;38420;53.150;6.370;2022-10-04T22:06:05;12.27;;;8.57;;
52508;SDS011;38420;53.150;6.370;2022-10-04T22:08:30;12.70;;;8.90;;
52508;SDS011;38420;53.150;6.370;2022-10-04T22:10:56;14.02;;;9.15;;
52508;SDS011;38420;53.150;6.370;2022-10-04T22:13:21;15.45;;;9.35;;
52508;SDS011;38420;53.150;6.370;2022-10-04T22:15:47;13.43;;;8.80;;
52508;SDS011;38420;53.150;6.370;2022-10-04T22:18:13;14.13;;;8.68;;
52508;SDS011;38420;53.150;6.370;2022-10-04T22:20:38;12.15;;;9.15;;
52508;SDS011;38420;53.150;6.370;2022-10-04T22:23:05;14.02;;;8.70;;
52508;SDS011;38420;53.150;6.370;2022-10-04T22:25:39;13.35;;;8.68;;
52508;SDS011;38420;53.150;6.370;2022-10-04T22:28:17;15.50;;;9.93;;
52508;SDS011;38420;53.150;6.370;2022-10-04T22:30:45;16.23;;;8.50;;
52508;SDS011;38420;53.150;6.370;2022-10-04T22:33:23;12.57;;;9.43;;
52508;SDS011;38420;53.150;6.370;2022-10-04T22:36:04;13.15;;;8.90;;
52508;SDS011;38420;53.150;6.370;2022-10-04T22:38:56;15.82;;;9.70;;
52508;SDS011;38420;53.150;6.370;2022-10-04T22:41:33;12.55;;;9.30;;
52508;SDS011;38420;53.150;6.370;2022-10-04T22:44:11;12.32;;;9.68;;
52508;SDS011;38420;53.150;6.370;2022-10-04T22:49:12;18.30;;;9.65;;
52508;SDS011;38420;53.150;6.370;2022-10-04T22:51:43;15.73;;;9.23;;
52508;SDS011;38420;53.150;6.370;2022-10-04T22:54:12;14.68;;;10.52;;
52508;SDS011;38420;53.150;6.370;2022-10-04T22:56:42;13.40;;;9.20;;
52508;SDS011;38420;53.150;6.370;2022-10-04T22:59:08;12.88;;;9.80;;
52508;SDS011;38420;53.150;6.370;2022-10-04T23:01:35;14.90;;;9.77;;
52508;SDS011;38420;53.150;6.370;2022-10-04T23:04:00;14.57;;;9.75;;
52508;SDS011;38420;53.150;6.370;2022-10-04T23:06:26;16.05;;;9.52;;
52508;SDS011;38420;53.150;6.370;2022-10-04T23:08:52;13.40;;;9.10;;
52508;SDS011;38420;53.150;6.370;2022-10-04T23:11:17;13.20;;;9.40;;
52508;SDS011;38420;53.150;6.370;2022-10-04T23:13:43;13.13;;;9.32;;
52508;SDS011;38420;53.150;6.370;2022-10-04T23:16:12;13.52;;;9.45;;
52508;SDS011;38420;53.150;6.370;2022-10-04T23:18:49;14.50;;;9.68;;
52508;SDS011;38420;53.150;6.370;2022-10-04T23:21:22;12.85;;;9.85;;
52508;SDS011;38420;53.150;6.370;2022-10-04T23:23:50;14.10;;;9.57;;
52508;SDS011;38420;53.150;6.370;2022-10-04T23:26:24;14.32;;;10.07;;
52508;SDS011;38420;53.150;6.370;2022-10-04T23:28:55;18.42;;;9.98;;
52508;SDS011;38420;53.150;6.370;2022-10-04T23:31:23;17.08;;;9.18;;
52508;SDS011;38420;53.150;6.370;2022-10-04T23:33:50;13.25;;;9.55;;
52508;SDS011;38420;53.150;6.370;2022-10-04T23:36:18;13.23;;;9.68;;
52508;SDS011;38420;53.150;6.370;2022-10-04T23:38:49;14.38;;;9.75;;
52508;SDS011;38420;53.150;6.370;2022-10-04T23:41:19;13.27;;;9.63;;
52508;SDS011;38420;53.150;6.370;2022-10-04T23:43:45;12.30;;;9.25;;
52508;SDS011;38420;53.150;6.370;2022-10-04T23:46:17;13.93;;;9.05;;
52508;SDS011;38420;53.150;6.370;2022-10-04T23:48:45;15.25;;;9.90;;
52508;SDS011;38420;53.150;6.370;2022-10-04T23:51:14;11.02;;;8.30;;
52508;SDS011;38420;53.150;6.370;2022-10-04T23:53:42;14.60;;;9.07;;
52508;SDS011;38420;53.150;6.370;2022-10-04T23:56:16;15.20;;;9.23;;
52508;SDS011;38420;53.150;6.370;2022-10-04T23:58:45;12.50;;;9.00;;
